sensor_id;sensor_type;location;lat;lon;timestamp;temperature;humidity
26107;DHT22;13866;50.748;12.630;2022-12-24T00:01:53;9.00;99.90
26107;DHT22;13866;50.748;12.630;2022-12-24T00:04:18;9.00;99.90
26107;DHT22;13866;50.748;12.630;2022-12-24T00:06:44;9.00;99.90
26107;DHT22;13866;50.748;12.630;2022-12-24T00:09:09;9.00;99.90
26107;DHT22;13866;50.748;12.630;2022-12-24T00:11:35;9.00;99.90
26107;DHT22;13866;50.748;12.630;2022-12-24T00:14:00;9.00;99.90
26107;DHT22;13866;50.748;12.630;2022-12-24T00:16:26;9.00;99.90
26107;DHT22;13866;50.748;12.630;2022-12-24T00:18:51;9.10;99.90
26107;DHT22;13866;50.748;12.630;2022-12-24T00:21:17;9.20;99.90
26107;DHT22;13866;50.748;12.630;2022-12-24T00:23:43;9.20;99.90
26107;DHT22;13866;50.748;12.630;2022-12-24T00:26:08;9.10;99.90
26107;DHT22;13866;50.748;12.630;2022-12-24T00:28:34;9.10;99.90
26107;DHT22;13866;50.748;12.630;2022-12-24T00:31:05;9.10;99.90
26107;DHT22;13866;50.748;12.630;2022-12-24T00:33:31;9.10;99.90
26107;DHT22;13866;50.748;12.630;2022-12-24T00:35:56;9.10;99.90
26107;DHT22;13866;50.748;12.630;2022-12-24T00:38:21;9.00;99.90
26107;DHT22;13866;50.748;12.630;2022-12-24T00:40:47;9.00;99.90
26107;DHT22;13866;50.748;12.630;2022-12-24T00:43:12;9.00;99.90
26107;DHT22;13866;50.748;12.630;2022-12-24T00:45:38;9.10;99.90
26107;DHT22;13866;50.748;12.630;2022-12-24T00:48:03;9.10;99.90
26107;DHT22;13866;50.748;12.630;2022-12-24T00:50:29;9.10;99.90
26107;DHT22;13866;50.748;12.630;2022-12-24T00:52:54;9.10;99.90
26107;DHT22;13866;50.748;12.630;2022-12-24T00:55:20;9.10;99.90
26107;DHT22;13866;50.748;12.630;2022-12-24T00:57:45;9.10;99.90
26107;DHT22;13866;50.748;12.630;2022-12-24T01:00:11;9.10;99.90
26107;DHT22;13866;50.748;12.630;2022-12-24T01:02:37;9.10;99.90
26107;DHT22;13866;50.748;12.630;2022-12-24T01:05:02;9.10;99.90
26107;DHT22;13866;50.748;12.630;2022-12-24T01:07:38;9.10;99.90
26107;DHT22;13866;50.748;12.630;2022-12-24T01:10:05;9.10;99.90
26107;DHT22;13866;50.748;12.630;2022-12-24T01:12:31;9.10;99.90
26107;DHT22;13866;50.748;12.630;2022-12-24T01:14:56;9.10;99.90
26107;DHT22;13866;50.748;12.630;2022-12-24T01:17:22;9.10;99.90
26107;DHT22;13866;50.748;12.630;2022-12-24T01:19:47;9.10;99.90
26107;DHT22;13866;50.748;12.630;2022-12-24T01:22:13;9.10;99.90
26107;DHT22;13866;50.748;12.630;2022-12-24T01:24:41;9.00;99.90
26107;DHT22;13866;50.748;12.630;2022-12-24T01:27:07;9.00;99.90
26107;DHT22;13866;50.748;12.630;2022-12-24T01:29:32;9.00;99.90
26107;DHT22;13866;50.748;12.630;2022-12-24T01:31:58;9.00;99.90
26107;DHT22;13866;50.748;12.630;2022-12-24T01:34:23;9.00;99.90
26107;DHT22;13866;50.748;12.630;2022-12-24T01:36:49;9.00;99.90
26107;DHT22;13866;50.748;12.630;2022-12-24T01:39:14;9.00;99.90
26107;DHT22;13866;50.748;12.630;2022-12-24T01:41:40;9.00;99.90
26107;DHT22;13866;50.748;12.630;2022-12-24T01:44:30;9.00;99.90
26107;DHT22;13866;50.748;12.630;2022-12-24T01:47:20;9.00;99.90
26107;DHT22;13866;50.748;12.630;2022-12-24T01:49:59;9.00;99.90
26107;DHT22;13866;50.748;12.630;2022-12-24T01:52:30;9.00;99.90
26107;DHT22;13866;50.748;12.630;2022-12-24T01:55:04;9.00;99.90
26107;DHT22;13866;50.748;12.630;2022-12-24T01:57:33;9.00;99.90
26107;DHT22;13866;50.748;12.630;2022-12-24T02:00:05;8.90;99.90
26107;DHT22;13866;50.748;12.630;2022-12-24T02:02:32;8.90;99.90
26107;DHT22;13866;50.748;12.630;2022-12-24T02:05:13;8.80;99.90
26107;DHT22;13866;50.748;12.630;2022-12-24T02:07:40;8.80;99.90
26107;DHT22;13866;50.748;12.630;2022-12-24T02:10:08;8.80;99.90
26107;DHT22;13866;50.748;12.630;2022-12-24T02:12:35;8.80;99.90
26107;DHT22;13866;50.748;12.630;2022-12-24T02:15:02;8.90;99.90
26107;DHT22;13866;50.748;12.630;2022-12-24T02:18:57;8.90;99.90
26107;DHT22;13866;50.748;12.630;2022-12-24T02:21:09;8.90;99.90
26107;DHT22;13866;50.748;12.630;2022-12-24T02:24:31;9.00;99.90
26107;DHT22;13866;50.748;12.630;2022-12-24T02:27:32;9.00;99.90
26107;DHT22;13866;50.748;12.630;2022-12-24T02:30:10;9.00;99.90
26107;DHT22;13866;50.748;12.630;2022-12-24T02:38:16;8.90;99.90
26107;DHT22;13866;50.748;12.630;2022-12-24T02:40:50;8.90;99.90
26107;DHT22;13866;50.748;12.630;2022-12-24T02:43:20;8.90;99.90
26107;DHT22;13866;50.748;12.630;2022-12-24T02:45:52;8.90;99.90
26107;DHT22;13866;50.748;12.630;2022-12-24T02:48:20;8.90;99.90
26107;DHT22;13866;50.748;12.630;2022-12-24T02:51:04;8.90;99.90
26107;DHT22;13866;50.748;12.630;2022-12-24T02:53:30;8.90;99.90
26107;DHT22;13866;50.748;12.630;2022-12-24T02:56:14;8.90;99.90
26107;DHT22;13866;50.748;12.630;2022-12-24T03:01:43;8.90;99.90
26107;DHT22;13866;50.748;12.630;2022-12-24T03:04:35;8.90;99.90
26107;DHT22;13866;50.748;12.630;2022-12-24T03:07:14;8.90;99.90
26107;DHT22;13866;50.748;12.630;2022-12-24T03:12:53;8.90;99.90
26107;DHT22;13866;50.748;12.630;2022-12-24T03:15:23;8.80;99.90
26107;DHT22;13866;50.748;12.630;2022-12-24T03:17:52;8.90;99.90
26107;DHT22;13866;50.748;12.630;2022-12-24T03:20:23;8.90;99.90
26107;DHT22;13866;50.748;12.630;2022-12-24T03:22:49;8.80;99.90
26107;DHT22;13866;50.748;12.630;2022-12-24T03:25:15;8.80;99.90
26107;DHT22;13866;50.748;12.630;2022-12-24T03:27:41;8.80;99.90
26107;DHT22;13866;50.748;12.630;2022-12-24T03:30:10;8.80;99.90
26107;DHT22;13866;50.748;12.630;2022-12-24T03:32:37;8.80;99.90
26107;DHT22;13866;50.748;12.630;2022-12-24T03:35:03;8.80;99.90
26107;DHT22;13866;50.748;12.630;2022-12-24T03:37:28;8.80;99.90
26107;DHT22;13866;50.748;12.630;2022-12-24T03:39:54;8.80;99.90
26107;DHT22;13866;50.748;12.630;2022-12-24T03:42:19;8.70;99.90
26107;DHT22;13866;50.748;12.630;2022-12-24T03:44:45;8.70;99.90
26107;DHT22;13866;50.748;12.630;2022-12-24T03:47:10;8.70;99.90
26107;DHT22;13866;50.748;12.630;2022-12-24T03:49:36;8.70;99.90
26107;DHT22;13866;50.748;12.630;2022-12-24T03:52:01;8.80;99.90
26107;DHT22;13866;50.748;12.630;2022-12-24T03:54:27;8.70;99.90
26107;DHT22;13866;50.748;12.630;2022-12-24T03:56:52;8.70;99.90
26107;DHT22;13866;50.748;12.630;2022-12-24T03:59:18;8.70;99.90
26107;DHT22;13866;50.748;12.630;2022-12-24T04:01:43;8.70;99.90
26107;DHT22;13866;50.748;12.630;2022-12-24T04:04:08;8.70;99.90
26107;DHT22;13866;50.748;12.630;2022-12-24T04:06:34;8.70;99.90
26107;DHT22;13866;50.748;12.630;2022-12-24T04:08:59;8.70;99.90
26107;DHT22;13866;50.748;12.630;2022-12-24T04:11:29;8.70;99.90
26107;DHT22;13866;50.748;12.630;2022-12-24T04:13:55;8.70;99.90
26107;DHT22;13866;50.748;12.630;2022-12-24T04:16:20;8.70;99.90
26107;DHT22;13866;50.748;12.630;2022-12-24T04:18:46;8.60;99.90
26107;DHT22;13866;50.748;12.630;2022-12-24T04:21:11;8.70;99.90
26107;DHT22;13866;50.748;12.630;2022-12-24T04:23:38;8.70;99.90
26107;DHT22;13866;50.748;12.630;2022-12-24T04:26:06;8.70;99.90
26107;DHT22;13866;50.748;12.630;2022-12-24T04:28:32;8.60;99.90
26107;DHT22;13866;50.748;12.630;2022-12-24T04:30:59;8.60;99.90
26107;DHT22;13866;50.748;12.630;2022-12-24T04:33:25;8.60;99.90
26107;DHT22;13866;50.748;12.630;2022-12-24T04:35:50;8.60;99.90
26107;DHT22;13866;50.748;12.630;2022-12-24T04:38:16;8.60;99.90
26107;DHT22;13866;50.748;12.630;2022-12-24T04:40:41;8.60;99.90
26107;DHT22;13866;50.748;12.630;2022-12-24T04:43:07;8.60;99.90
26107;DHT22;13866;50.748;12.630;2022-12-24T04:45:32;8.60;99.90
26107;DHT22;13866;50.748;12.630;2022-12-24T04:47:58;8.60;99.90
26107;DHT22;13866;50.748;12.630;2022-12-24T04:50:23;8.50;99.90
26107;DHT22;13866;50.748;12.630;2022-12-24T04:52:48;8.50;99.90
26107;DHT22;13866;50.748;12.630;2022-12-24T04:55:14;8.50;99.90
26107;DHT22;13866;50.748;12.630;2022-12-24T04:57:40;8.50;99.90
26107;DHT22;13866;50.748;12.630;2022-12-24T05:00:07;8.50;99.90
26107;DHT22;13866;50.748;12.630;2022-12-24T05:02:32;8.50;99.90
26107;DHT22;13866;50.748;12.630;2022-12-24T05:04:58;8.50;99.90
26107;DHT22;13866;50.748;12.630;2022-12-24T05:07:23;8.50;99.90
26107;DHT22;13866;50.748;12.630;2022-12-24T05:09:49;8.50;99.90
26107;DHT22;13866;50.748;12.630;2022-12-24T05:12:14;8.50;99.90
26107;DHT22;13866;50.748;12.630;2022-12-24T05:14:40;8.50;99.90
26107;DHT22;13866;50.748;12.630;2022-12-24T05:17:05;8.40;99.90
26107;DHT22;13866;50.748;12.630;2022-12-24T05:19:31;8.40;99.90
26107;DHT22;13866;50.748;12.630;2022-12-24T05:21:56;8.40;99.90
26107;DHT22;13866;50.748;12.630;2022-12-24T05:24:40;8.40;99.90
26107;DHT22;13866;50.748;12.630;2022-12-24T05:27:24;8.40;99.90
26107;DHT22;13866;50.748;12.630;2022-12-24T05:29:50;8.40;99.90
26107;DHT22;13866;50.748;12.630;2022-12-24T05:32:15;8.30;99.90
26107;DHT22;13866;50.748;12.630;2022-12-24T05:34:41;8.20;99.90
26107;DHT22;13866;50.748;12.630;2022-12-24T05:37:06;8.10;99.90
26107;DHT22;13866;50.748;12.630;2022-12-24T05:39:32;8.10;99.90
26107;DHT22;13866;50.748;12.630;2022-12-24T05:41:57;8.00;99.90
26107;DHT22;13866;50.748;12.630;2022-12-24T05:44:23;8.00;99.90
26107;DHT22;13866;50.748;12.630;2022-12-24T05:46:48;8.00;99.90
26107;DHT22;13866;50.748;12.630;2022-12-24T05:49:13;8.00;99.90
26107;DHT22;13866;50.748;12.630;2022-12-24T05:51:39;7.90;99.90
26107;DHT22;13866;50.748;12.630;2022-12-24T05:54:05;7.90;99.90
26107;DHT22;13866;50.748;12.630;2022-12-24T05:56:31;7.90;99.90
26107;DHT22;13866;50.748;12.630;2022-12-24T05:58:57;7.90;99.90
26107;DHT22;13866;50.748;12.630;2022-12-24T06:01:23;7.80;99.90
26107;DHT22;13866;50.748;12.630;2022-12-24T06:03:49;7.90;99.90
26107;DHT22;13866;50.748;12.630;2022-12-24T06:06:20;7.90;99.90
26107;DHT22;13866;50.748;12.630;2022-12-24T06:08:47;7.90;99.90
26107;DHT22;13866;50.748;12.630;2022-12-24T06:11:14;7.90;99.90
26107;DHT22;13866;50.748;12.630;2022-12-24T06:13:41;8.00;99.90
26107;DHT22;13866;50.748;12.630;2022-12-24T06:16:08;7.90;99.90
26107;DHT22;13866;50.748;12.630;2022-12-24T06:18:35;8.00;99.90
26107;DHT22;13866;50.748;12.630;2022-12-24T06:21:02;8.00;99.90
26107;DHT22;13866;50.748;12.630;2022-12-24T06:23:29;8.10;99.90
26107;DHT22;13866;50.748;12.630;2022-12-24T06:25:59;8.10;99.90
26107;DHT22;13866;50.748;12.630;2022-12-24T06:28:26;8.00;99.90
26107;DHT22;13866;50.748;12.630;2022-12-24T06:30:51;7.90;99.90
26107;DHT22;13866;50.748;12.630;2022-12-24T06:33:18;7.90;99.90
26107;DHT22;13866;50.748;12.630;2022-12-24T06:35:44;7.90;99.90
26107;DHT22;13866;50.748;12.630;2022-12-24T06:38:10;7.90;99.90
26107;DHT22;13866;50.748;12.630;2022-12-24T06:40:40;7.80;99.90
26107;DHT22;13866;50.748;12.630;2022-12-24T06:43:06;7.80;99.90
26107;DHT22;13866;50.748;12.630;2022-12-24T06:45:31;7.80;99.90
26107;DHT22;13866;50.748;12.630;2022-12-24T06:47:57;7.80;99.90
26107;DHT22;13866;50.748;12.630;2022-12-24T06:50:23;7.80;99.90
26107;DHT22;13866;50.748;12.630;2022-12-24T06:52:49;7.80;99.90
26107;DHT22;13866;50.748;12.630;2022-12-24T06:55:14;7.70;99.90
26107;DHT22;13866;50.748;12.630;2022-12-24T06:57:40;7.70;99.90
26107;DHT22;13866;50.748;12.630;2022-12-24T07:00:07;7.60;99.90
26107;DHT22;13866;50.748;12.630;2022-12-24T07:02:32;7.60;99.90
26107;DHT22;13866;50.748;12.630;2022-12-24T07:04:58;7.50;99.90
26107;DHT22;13866;50.748;12.630;2022-12-24T07:07:23;7.50;99.90
26107;DHT22;13866;50.748;12.630;2022-12-24T07:09:49;7.50;99.90
26107;DHT22;13866;50.748;12.630;2022-12-24T07:12:14;7.40;99.90
26107;DHT22;13866;50.748;12.630;2022-12-24T07:14:40;7.50;99.90
26107;DHT22;13866;50.748;12.630;2022-12-24T07:17:05;7.40;99.90
26107;DHT22;13866;50.748;12.630;2022-12-24T07:19:31;7.40;99.90
26107;DHT22;13866;50.748;12.630;2022-12-24T07:21:56;7.40;99.90
26107;DHT22;13866;50.748;12.630;2022-12-24T07:24:21;7.40;99.90
26107;DHT22;13866;50.748;12.630;2022-12-24T07:26:47;7.40;99.90
26107;DHT22;13866;50.748;12.630;2022-12-24T07:29:13;7.40;99.90
26107;DHT22;13866;50.748;12.630;2022-12-24T07:31:38;7.40;99.90
26107;DHT22;13866;50.748;12.630;2022-12-24T07:34:04;7.40;99.90
26107;DHT22;13866;50.748;12.630;2022-12-24T07:36:29;7.40;99.90
26107;DHT22;13866;50.748;12.630;2022-12-24T07:38:55;7.40;99.90
26107;DHT22;13866;50.748;12.630;2022-12-24T07:41:21;7.40;99.90
26107;DHT22;13866;50.748;12.630;2022-12-24T07:43:46;7.50;99.90
26107;DHT22;13866;50.748;12.630;2022-12-24T07:46:12;7.50;99.90
26107;DHT22;13866;50.748;12.630;2022-12-24T07:48:38;7.50;99.90
26107;DHT22;13866;50.748;12.630;2022-12-24T07:51:03;7.40;99.90
26107;DHT22;13866;50.748;12.630;2022-12-24T07:53:29;7.40;99.90
26107;DHT22;13866;50.748;12.630;2022-12-24T07:55:56;7.40;99.90
26107;DHT22;13866;50.748;12.630;2022-12-24T07:58:22;7.40;99.90
26107;DHT22;13866;50.748;12.630;2022-12-24T08:00:47;7.40;99.90
26107;DHT22;13866;50.748;12.630;2022-12-24T08:03:22;7.40;99.90
26107;DHT22;13866;50.748;12.630;2022-12-24T08:05:47;7.40;99.90
26107;DHT22;13866;50.748;12.630;2022-12-24T08:08:13;7.40;99.90
26107;DHT22;13866;50.748;12.630;2022-12-24T08:10:40;7.40;99.90
26107;DHT22;13866;50.748;12.630;2022-12-24T08:13:06;7.40;99.90
26107;DHT22;13866;50.748;12.630;2022-12-24T08:15:32;7.40;99.90
26107;DHT22;13866;50.748;12.630;2022-12-24T08:17:57;7.40;99.90
26107;DHT22;13866;50.748;12.630;2022-12-24T08:20:23;7.40;99.90
26107;DHT22;13866;50.748;12.630;2022-12-24T08:22:48;7.50;99.90
26107;DHT22;13866;50.748;12.630;2022-12-24T08:25:14;7.50;99.90
26107;DHT22;13866;50.748;12.630;2022-12-24T08:27:39;7.60;99.90
26107;DHT22;13866;50.748;12.630;2022-12-24T08:30:05;7.60;99.90
26107;DHT22;13866;50.748;12.630;2022-12-24T08:32:31;7.70;99.90
26107;DHT22;13866;50.748;12.630;2022-12-24T08:34:56;7.70;99.90
26107;DHT22;13866;50.748;12.630;2022-12-24T08:37:22;7.80;99.90
26107;DHT22;13866;50.748;12.630;2022-12-24T08:39:47;7.80;99.90
26107;DHT22;13866;50.748;12.630;2022-12-24T08:42:12;7.80;99.90
26107;DHT22;13866;50.748;12.630;2022-12-24T08:44:38;7.90;99.90
26107;DHT22;13866;50.748;12.630;2022-12-24T08:47:03;7.90;99.90
26107;DHT22;13866;50.748;12.630;2022-12-24T08:49:29;8.00;99.90
26107;DHT22;13866;50.748;12.630;2022-12-24T08:51:54;8.00;99.90
26107;DHT22;13866;50.748;12.630;2022-12-24T08:54:20;8.10;99.90
26107;DHT22;13866;50.748;12.630;2022-12-24T08:56:46;8.10;99.90
26107;DHT22;13866;50.748;12.630;2022-12-24T08:59:12;8.10;99.90
26107;DHT22;13866;50.748;12.630;2022-12-24T09:01:37;8.20;99.90
26107;DHT22;13866;50.748;12.630;2022-12-24T09:04:03;8.20;99.90
26107;DHT22;13866;50.748;12.630;2022-12-24T09:06:28;8.30;99.90
26107;DHT22;13866;50.748;12.630;2022-12-24T09:08:54;8.20;99.90
26107;DHT22;13866;50.748;12.630;2022-12-24T09:11:20;8.30;99.90
26107;DHT22;13866;50.748;12.630;2022-12-24T09:13:46;8.20;99.90
26107;DHT22;13866;50.748;12.630;2022-12-24T09:16:12;8.30;99.90
26107;DHT22;13866;50.748;12.630;2022-12-24T09:18:38;8.20;99.90
26107;DHT22;13866;50.748;12.630;2022-12-24T09:21:09;8.20;99.90
26107;DHT22;13866;50.748;12.630;2022-12-24T09:23:37;8.20;99.90
26107;DHT22;13866;50.748;12.630;2022-12-24T09:26:11;8.20;99.90
26107;DHT22;13866;50.748;12.630;2022-12-24T09:28:37;8.30;99.90
26107;DHT22;13866;50.748;12.630;2022-12-24T09:31:03;8.20;99.90
26107;DHT22;13866;50.748;12.630;2022-12-24T09:33:32;8.20;99.90
26107;DHT22;13866;50.748;12.630;2022-12-24T09:35:59;8.20;99.90
26107;DHT22;13866;50.748;12.630;2022-12-24T09:38:25;8.10;99.90
26107;DHT22;13866;50.748;12.630;2022-12-24T09:40:51;8.00;99.90
26107;DHT22;13866;50.748;12.630;2022-12-24T09:43:19;8.00;99.90
26107;DHT22;13866;50.748;12.630;2022-12-24T09:46:08;8.00;99.90
26107;DHT22;13866;50.748;12.630;2022-12-24T09:48:38;8.00;99.90
26107;DHT22;13866;50.748;12.630;2022-12-24T09:51:10;8.00;99.90
26107;DHT22;13866;50.748;12.630;2022-12-24T09:53:52;8.00;99.90
26107;DHT22;13866;50.748;12.630;2022-12-24T09:56:22;8.00;99.90
26107;DHT22;13866;50.748;12.630;2022-12-24T09:58:54;8.00;99.90
26107;DHT22;13866;50.748;12.630;2022-12-24T10:01:21;8.00;99.90
26107;DHT22;13866;50.748;12.630;2022-12-24T10:03:46;8.00;99.90
26107;DHT22;13866;50.748;12.630;2022-12-24T10:06:16;8.00;99.90
26107;DHT22;13866;50.748;12.630;2022-12-24T10:09:04;8.00;99.90
26107;DHT22;13866;50.748;12.630;2022-12-24T10:20:38;8.20;99.90
26107;DHT22;13866;50.748;12.630;2022-12-24T10:23:21;8.30;99.90
26107;DHT22;13866;50.748;12.630;2022-12-24T10:26:06;8.30;99.90
26107;DHT22;13866;50.748;12.630;2022-12-24T10:28:57;8.40;99.90
26107;DHT22;13866;50.748;12.630;2022-12-24T10:31:35;8.50;99.90
26107;DHT22;13866;50.748;12.630;2022-12-24T10:34:19;8.60;99.90
26107;DHT22;13866;50.748;12.630;2022-12-24T10:36:46;8.60;99.90
26107;DHT22;13866;50.748;12.630;2022-12-24T10:39:19;8.60;99.90
26107;DHT22;13866;50.748;12.630;2022-12-24T10:41:47;8.70;99.90
26107;DHT22;13866;50.748;12.630;2022-12-24T10:44:16;8.70;99.90
26107;DHT22;13866;50.748;12.630;2022-12-24T10:46:43;8.70;99.90
26107;DHT22;13866;50.748;12.630;2022-12-24T10:49:15;8.70;99.90
26107;DHT22;13866;50.748;12.630;2022-12-24T10:51:45;8.70;99.90
26107;DHT22;13866;50.748;12.630;2022-12-24T10:54:17;8.80;99.90
26107;DHT22;13866;50.748;12.630;2022-12-24T10:56:46;8.70;99.90
26107;DHT22;13866;50.748;12.630;2022-12-24T11:01:53;8.70;99.90
26107;DHT22;13866;50.748;12.630;2022-12-24T11:04:27;8.80;99.90
26107;DHT22;13866;50.748;12.630;2022-12-24T11:07:02;8.90;99.90
26107;DHT22;13866;50.748;12.630;2022-12-24T11:09:34;8.90;99.90
26107;DHT22;13866;50.748;12.630;2022-12-24T11:12:03;9.00;99.90
26107;DHT22;13866;50.748;12.630;2022-12-24T11:14:36;9.00;99.90
26107;DHT22;13866;50.748;12.630;2022-12-24T11:17:03;9.00;99.90
26107;DHT22;13866;50.748;12.630;2022-12-24T11:19:37;9.00;99.90
26107;DHT22;13866;50.748;12.630;2022-12-24T11:22:28;9.00;99.90
26107;DHT22;13866;50.748;12.630;2022-12-24T11:25:19;9.00;99.90
26107;DHT22;13866;50.748;12.630;2022-12-24T11:27:46;9.10;99.90
26107;DHT22;13866;50.748;12.630;2022-12-24T11:32:48;9.10;99.90
26107;DHT22;13866;50.748;12.630;2022-12-24T11:35:22;9.20;99.90
26107;DHT22;13866;50.748;12.630;2022-12-24T11:40:34;9.20;99.90
26107;DHT22;13866;50.748;12.630;2022-12-24T11:43:00;9.30;99.90
26107;DHT22;13866;50.748;12.630;2022-12-24T11:45:28;9.30;99.90
26107;DHT22;13866;50.748;12.630;2022-12-24T11:47:55;9.30;99.90
26107;DHT22;13866;50.748;12.630;2022-12-24T11:53:05;9.30;99.90
26107;DHT22;13866;50.748;12.630;2022-12-24T11:55:38;9.30;99.90
26107;DHT22;13866;50.748;12.630;2022-12-24T12:00:50;9.30;99.90
26107;DHT22;13866;50.748;12.630;2022-12-24T12:03:29;9.40;99.90
26107;DHT22;13866;50.748;12.630;2022-12-24T12:05:58;9.40;99.90
26107;DHT22;13866;50.748;12.630;2022-12-24T12:08:26;9.50;99.90
26107;DHT22;13866;50.748;12.630;2022-12-24T12:10:54;9.50;99.90
26107;DHT22;13866;50.748;12.630;2022-12-24T12:13:28;9.50;99.90
26107;DHT22;13866;50.748;12.630;2022-12-24T12:16:19;9.50;99.90
26107;DHT22;13866;50.748;12.630;2022-12-24T12:18:56;9.50;99.90
26107;DHT22;13866;50.748;12.630;2022-12-24T12:21:28;9.50;99.90
26107;DHT22;13866;50.748;12.630;2022-12-24T12:24:05;9.50;99.90
26107;DHT22;13866;50.748;12.630;2022-12-24T12:26:31;9.50;99.90
26107;DHT22;13866;50.748;12.630;2022-12-24T12:29:04;9.50;99.90
26107;DHT22;13866;50.748;12.630;2022-12-24T12:31:44;9.50;99.90
26107;DHT22;13866;50.748;12.630;2022-12-24T12:34:31;9.50;99.90
26107;DHT22;13866;50.748;12.630;2022-12-24T12:37:13;9.50;99.90
26107;DHT22;13866;50.748;12.630;2022-12-24T12:39:42;9.50;99.90
26107;DHT22;13866;50.748;12.630;2022-12-24T12:45:15;9.60;99.90
26107;DHT22;13866;50.748;12.630;2022-12-24T12:48:39;9.60;99.90
26107;DHT22;13866;50.748;12.630;2022-12-24T12:51:21;9.50;99.90
26107;DHT22;13866;50.748;12.630;2022-12-24T12:54:04;9.50;99.90
26107;DHT22;13866;50.748;12.630;2022-12-24T12:56:35;9.50;99.90
26107;DHT22;13866;50.748;12.630;2022-12-24T12:59:16;9.50;99.90
26107;DHT22;13866;50.748;12.630;2022-12-24T13:01:57;9.50;99.90
26107;DHT22;13866;50.748;12.630;2022-12-24T13:04:57;9.50;99.90
26107;DHT22;13866;50.748;12.630;2022-12-24T13:22:01;9.50;99.90
26107;DHT22;13866;50.748;12.630;2022-12-24T13:24:29;9.40;99.90
26107;DHT22;13866;50.748;12.630;2022-12-24T13:27:14;9.40;99.90
26107;DHT22;13866;50.748;12.630;2022-12-24T13:29:53;9.30;99.90
26107;DHT22;13866;50.748;12.630;2022-12-24T13:34:51;9.10;99.90
26107;DHT22;13866;50.748;12.630;2022-12-24T13:37:20;9.00;99.90
26107;DHT22;13866;50.748;12.630;2022-12-24T13:42:47;8.90;99.90
26107;DHT22;13866;50.748;12.630;2022-12-24T13:47:53;8.90;99.90
26107;DHT22;13866;50.748;12.630;2022-12-24T13:50:54;8.90;99.90
26107;DHT22;13866;50.748;12.630;2022-12-24T13:53:40;9.00;99.90
26107;DHT22;13866;50.748;12.630;2022-12-24T13:58:48;9.00;99.90
26107;DHT22;13866;50.748;12.630;2022-12-24T14:01:17;9.00;99.90
26107;DHT22;13866;50.748;12.630;2022-12-24T14:03:53;9.00;99.90
26107;DHT22;13866;50.748;12.630;2022-12-24T14:06:26;9.00;99.90
26107;DHT22;13866;50.748;12.630;2022-12-24T14:08:55;9.00;99.90
26107;DHT22;13866;50.748;12.630;2022-12-24T14:11:24;8.90;99.90
26107;DHT22;13866;50.748;12.630;2022-12-24T14:16:29;8.90;99.90
26107;DHT22;13866;50.748;12.630;2022-12-24T14:19:16;8.90;99.90
26107;DHT22;13866;50.748;12.630;2022-12-24T14:21:54;8.90;99.90
26107;DHT22;13866;50.748;12.630;2022-12-24T14:24:24;8.90;99.90
26107;DHT22;13866;50.748;12.630;2022-12-24T14:26:54;8.90;99.90
26107;DHT22;13866;50.748;12.630;2022-12-24T14:29:28;8.90;99.90
26107;DHT22;13866;50.748;12.630;2022-12-24T14:31:56;8.80;99.90
26107;DHT22;13866;50.748;12.630;2022-12-24T14:34:22;8.80;99.90
26107;DHT22;13866;50.748;12.630;2022-12-24T14:36:50;8.70;99.90
26107;DHT22;13866;50.748;12.630;2022-12-24T14:39:25;8.70;99.90
26107;DHT22;13866;50.748;12.630;2022-12-24T14:42:28;8.70;99.90
26107;DHT22;13866;50.748;12.630;2022-12-24T14:45:16;8.60;99.90
26107;DHT22;13866;50.748;12.630;2022-12-24T14:47:46;8.60;99.90
26107;DHT22;13866;50.748;12.630;2022-12-24T14:50:44;8.60;99.90
26107;DHT22;13866;50.748;12.630;2022-12-24T14:53:25;8.50;99.90
26107;DHT22;13866;50.748;12.630;2022-12-24T14:55:52;8.50;99.90
26107;DHT22;13866;50.748;12.630;2022-12-24T15:00:44;8.40;99.90
26107;DHT22;13866;50.748;12.630;2022-12-24T15:03:12;8.30;99.90
26107;DHT22;13866;50.748;12.630;2022-12-24T15:05:38;8.30;99.90
26107;DHT22;13866;50.748;12.630;2022-12-24T15:08:15;8.30;99.90
26107;DHT22;13866;50.748;12.630;2022-12-24T15:10:44;8.20;99.90
26107;DHT22;13866;50.748;12.630;2022-12-24T15:15:47;8.10;99.90
26107;DHT22;13866;50.748;12.630;2022-12-24T15:18:15;8.10;99.90
26107;DHT22;13866;50.748;12.630;2022-12-24T15:20:48;8.00;99.90
26107;DHT22;13866;50.748;12.630;2022-12-24T15:23:30;8.00;99.90
26107;DHT22;13866;50.748;12.630;2022-12-24T15:26:23;8.00;99.90
26107;DHT22;13866;50.748;12.630;2022-12-24T15:28:49;8.00;99.90
26107;DHT22;13866;50.748;12.630;2022-12-24T15:31:20;7.90;99.90
26107;DHT22;13866;50.748;12.630;2022-12-24T15:33:48;7.90;99.90
26107;DHT22;13866;50.748;12.630;2022-12-24T15:36:26;7.90;99.90
26107;DHT22;13866;50.748;12.630;2022-12-24T15:38:53;7.90;99.90
26107;DHT22;13866;50.748;12.630;2022-12-24T15:41:25;7.80;99.90
26107;DHT22;13866;50.748;12.630;2022-12-24T15:43:53;7.70;99.90
26107;DHT22;13866;50.748;12.630;2022-12-24T15:46:25;7.70;99.90
26107;DHT22;13866;50.748;12.630;2022-12-24T15:48:53;7.70;99.90
26107;DHT22;13866;50.748;12.630;2022-12-24T15:51:32;7.60;99.90
26107;DHT22;13866;50.748;12.630;2022-12-24T15:54:15;7.70;99.90
26107;DHT22;13866;50.748;12.630;2022-12-24T15:56:44;7.70;99.90
26107;DHT22;13866;50.748;12.630;2022-12-24T16:01:50;7.80;99.90
26107;DHT22;13866;50.748;12.630;2022-12-24T16:04:27;7.90;99.90
26107;DHT22;13866;50.748;12.630;2022-12-24T16:06:55;7.90;99.90
26107;DHT22;13866;50.748;12.630;2022-12-24T16:09:40;7.90;99.90
26107;DHT22;13866;50.748;12.630;2022-12-24T16:12:21;7.90;99.90
26107;DHT22;13866;50.748;12.630;2022-12-24T16:14:53;7.80;99.90
26107;DHT22;13866;50.748;12.630;2022-12-24T16:17:24;7.70;99.90
26107;DHT22;13866;50.748;12.630;2022-12-24T16:19:52;7.70;99.90
26107;DHT22;13866;50.748;12.630;2022-12-24T16:22:20;7.60;99.90
26107;DHT22;13866;50.748;12.630;2022-12-24T16:25:25;7.60;99.90
26107;DHT22;13866;50.748;12.630;2022-12-24T16:27:51;7.60;99.90
26107;DHT22;13866;50.748;12.630;2022-12-24T16:30:17;7.60;99.90
26107;DHT22;13866;50.748;12.630;2022-12-24T16:32:44;7.50;99.90
26107;DHT22;13866;50.748;12.630;2022-12-24T16:35:25;7.50;99.90
26107;DHT22;13866;50.748;12.630;2022-12-24T16:37:52;7.50;99.90
26107;DHT22;13866;50.748;12.630;2022-12-24T16:40:18;7.60;99.90
26107;DHT22;13866;50.748;12.630;2022-12-24T16:42:44;7.50;99.90
26107;DHT22;13866;50.748;12.630;2022-12-24T16:45:29;7.50;99.90
26107;DHT22;13866;50.748;12.630;2022-12-24T16:47:58;7.50;99.90
26107;DHT22;13866;50.748;12.630;2022-12-24T16:50:24;7.50;99.90
26107;DHT22;13866;50.748;12.630;2022-12-24T16:52:49;7.50;99.90
26107;DHT22;13866;50.748;12.630;2022-12-24T16:55:15;7.50;99.90
26107;DHT22;13866;50.748;12.630;2022-12-24T16:57:42;7.40;99.90
26107;DHT22;13866;50.748;12.630;2022-12-24T17:02:38;7.40;99.90
26107;DHT22;13866;50.748;12.630;2022-12-24T17:05:04;7.40;99.90